Time;durP1;ratioP1;P1;durP2;ratioP2;P2;SDS_P1;SDS_P2;PMS_P1;PMS_P2;Temp;Humidity;BMP_temperature;BMP_pressure;BME280_temperature;BME280_humidity;BME280_pressure;Samples;Min_cycle;Max_cycle;Signal;HPM_P1;HPM_P2
2021/07/17 00:01:08;;;;;;;29.38;10.15;;;;;;;;;;5096688;28;20032;-77
2021/07/17 00:03:34;;;;;;;40.92;11.88;;;;;;;;;;5080604;28;20028;-78
2021/07/17 00:06:00;;;;;;;27.65;9.18;;;;;;;;;;5080714;28;20073;-77
2021/07/17 00:08:28;;;;;;;35.10;9.68;;;;;;;;;;5116581;28;20055;-78
2021/07/17 00:10:53;;;;;;;38.05;10.52;;;;;;;;;;5115587;28;20425;-78
2021/07/17 00:13:20;;;;;;;34.30;10.13;;;;;;;;;;5099307;28;20024;-77
2021/07/17 00:15:48;;;;;;;24.63;9.60;;;;;;;;;;5090978;28;20045;-77
2021/07/17 00:18:15;;;;;;;30.75;9.77;;;;;;;;;;5078320;28;20040;-77
2021/07/17 00:20:41;;;;;;;31.80;9.90;;;;;;;;;;5078306;28;20075;-77
2021/07/17 00:23:07;;;;;;;33.45;10.10;;;;;;;;;;5074073;28;20037;-78
2021/07/17 00:25:33;;;;;;;30.63;9.40;;;;;;;;;;5059798;28;20090;-78
2021/07/17 00:28:00;;;;;;;31.08;8.82;;;;;;;;;;5059529;28;20028;-78
2021/07/17 00:30:27;;;;;;;37.58;10.70;;;;;;;;;;5058190;28;20104;-78
2021/07/17 00:32:53;;;;;;;28.85;9.30;;;;;;;;;;5040952;28;20128;-78
2021/07/17 00:35:18;;;;;;;40.67;12.27;;;;;;;;;;5058600;28;20491;-78
2021/07/17 00:37:44;;;;;;;37.63;9.75;;;;;;;;;;5057539;28;20047;-77
2021/07/17 00:40:12;;;;;;;30.90;9.45;;;;;;;;;;5058356;28;20106;-78
2021/07/17 00:42:45;;;;;;;39.67;11.13;;;;;;;;;;5058723;28;20116;-78
2021/07/17 00:45:11;;;;;;;30.67;9.77;;;;;;;;;;5059352;28;20036;-78
2021/07/17 00:47:37;;;;;;;37.30;10.73;;;;;;;;;;5061678;28;20037;-78
2021/07/17 00:50:05;;;;;;;32.03;9.25;;;;;;;;;;5062533;28;20512;-78
2021/07/17 00:52:35;;;;;;;33.35;10.02;;;;;;;;;;5063593;28;20039;-78
2021/07/17 00:55:03;;;;;;;27.48;9.13;;;;;;;;;;5063270;28;20040;-78
2021/07/17 00:57:34;;;;;;;33.80;9.95;;;;;;;;;;5062553;28;20094;-78
2021/07/17 01:00:05;;;;;;;25.50;9.45;;;;;;;;;;5062623;28;20103;-78
2021/07/17 01:02:36;;;;;;;31.27;9.77;;;;;;;;;;5062476;28;20166;-78
2021/07/17 01:05:07;;;;;;;33.10;9.77;;;;;;;;;;5064225;28;20038;-78
2021/07/17 01:07:33;;;;;;;39.17;11.18;;;;;;;;;;5083721;28;20116;-78
2021/07/17 01:09:59;;;;;;;29.48;10.30;;;;;;;;;;5080900;28;20131;-78
2021/07/17 01:12:25;;;;;;;37.25;10.15;;;;;;;;;;5062898;28;20075;-78
2021/07/17 01:14:51;;;;;;;33.08;8.88;;;;;;;;;;5064380;28;20099;-78
2021/07/17 01:17:19;;;;;;;23.95;8.45;;;;;;;;;;5079991;28;20036;-78
2021/07/17 01:19:45;;;;;;;27.90;9.10;;;;;;;;;;5063692;28;20033;-78
2021/07/17 01:22:12;;;;;;;25.25;8.93;;;;;;;;;;5063887;28;20123;-78
2021/07/17 01:24:38;;;;;;;34.10;10.15;;;;;;;;;;5114059;28;20035;-77
2021/07/17 01:27:04;;;;;;;30.98;9.48;;;;;;;;;;5120274;28;20092;-78
2021/07/17 01:29:29;;;;;;;32.42;9.38;;;;;;;;;;5119721;28;20073;-78
2021/07/17 01:31:56;;;;;;;39.20;10.38;;;;;;;;;;5118489;28;20574;-78
2021/07/17 01:34:23;;;;;;;28.80;10.48;;;;;;;;;;5084388;28;20027;-78
2021/07/17 01:36:49;;;;;;;36.33;9.25;;;;;;;;;;5118501;28;20478;-78
2021/07/17 01:39:15;;;;;;;26.33;9.10;;;;;;;;;;5101940;28;20126;-77
2021/07/17 01:41:45;;;;;;;33.72;10.10;;;;;;;;;;5119450;28;20040;-77
2021/07/17 01:44:11;;;;;;;30.60;9.60;;;;;;;;;;5085022;28;20031;-78
2021/07/17 01:46:36;;;;;;;25.38;9.30;;;;;;;;;;5120385;28;20042;-78
2021/07/17 01:49:02;;;;;;;29.52;9.70;;;;;;;;;;5102566;28;20024;-77
2021/07/17 01:51:27;;;;;;;33.65;10.18;;;;;;;;;;5120156;28;20036;-78
2021/07/17 01:53:57;;;;;;;31.45;10.18;;;;;;;;;;5084925;28;20036;-77
2021/07/17 01:56:24;;;;;;;38.97;10.70;;;;;;;;;;5101604;28;20050;-78
2021/07/17 01:58:50;;;;;;;34.95;11.13;;;;;;;;;;5084469;28;20035;-78
2021/07/17 02:01:15;;;;;;;40.25;10.75;;;;;;;;;;5083062;28;20131;-78
2021/07/17 02:03:45;;;;;;;38.42;11.45;;;;;;;;;;5097460;28;20490;-80
2021/07/17 02:06:12;;;;;;;33.53;10.82;;;;;;;;;;5098469;28;20039;-80
2021/07/17 02:08:39;;;;;;;33.35;10.02;;;;;;;;;;5081280;28;20490;-78
2021/07/17 02:11:05;;;;;;;29.67;9.63;;;;;;;;;;5098042;28;20251;-78
2021/07/17 02:13:30;;;;;;;34.95;11.25;;;;;;;;;;5114784;28;20092;-80
2021/07/17 02:15:57;;;;;;;32.33;10.40;;;;;;;;;;5082411;28;20398;-78
2021/07/17 02:18:32;;;;;;;44.00;10.38;;;;;;;;;;5061831;28;20047;-78
2021/07/17 02:20:59;;;;;;;38.30;12.25;;;;;;;;;;5077941;28;20036;-78
2021/07/17 02:23:27;;;;;;;39.00;11.73;;;;;;;;;;5077598;28;20032;-78
2021/07/17 02:25:54;;;;;;;34.55;10.23;;;;;;;;;;5094461;28;20072;-78
2021/07/17 02:28:22;;;;;;;30.85;10.88;;;;;;;;;;5077915;28;20042;-78
2021/07/17 02:30:52;;;;;;;44.20;11.95;;;;;;;;;;5078341;28;20032;-78
2021/07/17 02:33:17;;;;;;;32.55;11.25;;;;;;;;;;5077324;28;20445;-78
2021/07/17 02:35:44;;;;;;;33.90;13.10;;;;;;;;;;5077364;28;20079;-78
2021/07/17 02:38:09;;;;;;;37.85;11.77;;;;;;;;;;5060721;28;20035;-78
2021/07/17 02:40:36;;;;;;;38.83;11.15;;;;;;;;;;5077733;28;20024;-78
2021/07/17 02:43:04;;;;;;;31.90;12.13;;;;;;;;;;5061192;28;20524;-77
2021/07/17 02:45:30;;;;;;;45.60;13.82;;;;;;;;;;5091695;28;20027;-78
2021/07/17 02:47:56;;;;;;;34.30;11.50;;;;;;;;;;5100871;28;20507;-78
2021/07/17 02:50:22;;;;;;;31.88;11.38;;;;;;;;;;5117429;28;20046;-78
2021/07/17 02:52:48;;;;;;;37.38;12.40;;;;;;;;;;5136255;28;20077;-78
2021/07/17 02:55:14;;;;;;;44.95;14.32;;;;;;;;;;5100576;28;20035;-78
2021/07/17 02:57:40;;;;;;;32.95;12.10;;;;;;;;;;5100255;28;20066;-78
2021/07/17 03:00:09;;;;;;;41.95;12.55;;;;;;;;;;5099851;28;20095;-78
2021/07/17 03:02:35;;;;;;;39.63;12.98;;;;;;;;;;5134887;28;20030;-78
2021/07/17 03:05:01;;;;;;;44.95;12.82;;;;;;;;;;5134975;27;20592;-77
2021/07/17 03:07:26;;;;;;;39.72;13.48;;;;;;;;;;5134969;28;20039;-78
2021/07/17 03:09:52;;;;;;;39.55;13.95;;;;;;;;;;5099945;28;20031;-77
2021/07/17 03:12:17;;;;;;;48.05;14.00;;;;;;;;;;5117538;28;20524;-78
2021/07/17 03:14:46;;;;;;;33.35;13.23;;;;;;;;;;5083105;28;20031;-78
2021/07/17 03:17:12;;;;;;;42.08;13.65;;;;;;;;;;5097260;28;20100;-78
2021/07/17 03:19:39;;;;;;;39.42;13.18;;;;;;;;;;5080064;28;20036;-78
2021/07/17 03:22:04;;;;;;;38.47;13.05;;;;;;;;;;5099774;28;20039;-78
2021/07/17 03:24:30;;;;;;;40.00;13.40;;;;;;;;;;5118789;28;20036;-78
2021/07/17 03:26:58;;;;;;;51.40;13.57;;;;;;;;;;5119101;28;20036;-78
2021/07/17 03:29:24;;;;;;;35.13;13.25;;;;;;;;;;5084249;28;20134;-77
2021/07/17 03:31:50;;;;;;;44.30;14.20;;;;;;;;;;5083610;28;20059;-78
2021/07/17 03:34:16;;;;;;;42.08;13.98;;;;;;;;;;5082840;28;20028;-77
2021/07/17 03:36:41;;;;;;;41.40;13.52;;;;;;;;;;5100270;28;20114;-78
2021/07/17 03:39:07;;;;;;;45.60;15.00;;;;;;;;;;5083332;28;20127;-77
2021/07/17 03:41:33;;;;;;;35.50;13.10;;;;;;;;;;5101118;28;20509;-78
2021/07/17 03:44:00;;;;;;;43.95;14.70;;;;;;;;;;5072323;28;20039;-78
2021/07/17 03:46:28;;;;;;;35.50;12.13;;;;;;;;;;5097154;28;20036;-78
2021/07/17 03:48:53;;;;;;;38.60;13.05;;;;;;;;;;5062855;28;20039;-77
2021/07/17 03:51:19;;;;;;;42.03;13.23;;;;;;;;;;5063355;28;20402;-78
2021/07/17 03:53:44;;;;;;;34.58;12.75;;;;;;;;;;5079383;28;20031;-78
2021/07/17 03:56:10;;;;;;;36.03;13.20;;;;;;;;;;5096696;28;20490;-78
2021/07/17 03:58:35;;;;;;;40.72;12.43;;;;;;;;;;5063074;28;20028;-78
2021/07/17 04:01:00;;;;;;;41.63;14.00;;;;;;;;;;5097262;28;20511;-78
2021/07/17 04:03:26;;;;;;;36.33;12.35;;;;;;;;;;5095803;28;20042;-78
2021/07/17 04:05:52;;;;;;;39.95;14.25;;;;;;;;;;5062244;28;20032;-78
2021/07/17 04:08:17;;;;;;;35.63;13.10;;;;;;;;;;5062274;28;20548;-77
2021/07/17 04:10:43;;;;;;;34.75;12.35;;;;;;;;;;5079481;28;20043;-77
2021/07/17 04:13:08;;;;;;;37.67;11.85;;;;;;;;;;5082877;28;20027;-79
2021/07/17 04:15:34;;;;;;;34.55;12.63;;;;;;;;;;5115845;28;20020;-77
2021/07/17 04:17:59;;;;;;;37.50;12.25;;;;;;;;;;5082902;28;20039;-78
2021/07/17 04:20:26;;;;;;;30.52;11.70;;;;;;;;;;5082137;28;20092;-77
2021/07/17 04:22:52;;;;;;;36.10;11.82;;;;;;;;;;5082296;28;20040;-78
2021/07/17 04:25:18;;;;;;;32.08;11.52;;;;;;;;;;5082802;28;20066;-78
2021/07/17 04:27:45;;;;;;;37.42;13.18;;;;;;;;;;5083211;28;20035;-79
2021/07/17 04:30:12;;;;;;;33.97;13.05;;;;;;;;;;5099823;28;20035;-79
2021/07/17 04:32:42;;;;;;;34.58;12.80;;;;;;;;;;5083219;28;20402;-79
2021/07/17 04:35:09;;;;;;;33.95;11.82;;;;;;;;;;5118226;28;20042;-79
2021/07/17 04:37:34;;;;;;;34.67;11.80;;;;;;;;;;5100221;28;20108;-78
2021/07/17 04:40:01;;;;;;;39.50;11.02;;;;;;;;;;5118656;28;20036;-79
2021/07/17 04:42:26;;;;;;;36.65;12.20;;;;;;;;;;5084067;28;20082;-79
2021/07/17 04:44:54;;;;;;;37.83;11.65;;;;;;;;;;5091207;28;20475;-79
2021/07/17 04:47:20;;;;;;;34.17;11.13;;;;;;;;;;5079495;28;20024;-79
2021/07/17 04:49:45;;;;;;;38.90;11.65;;;;;;;;;;5097994;28;20035;-78
2021/07/17 04:52:15;;;;;;;35.35;10.15;;;;;;;;;;5079976;28;20134;-78
2021/07/17 04:54:40;;;;;;;28.25;10.63;;;;;;;;;;5097756;28;20035;-78
2021/07/17 04:57:08;;;;;;;30.02;9.77;;;;;;;;;;5062721;28;20036;-79
2021/07/17 04:59:34;;;;;;;32.53;11.30;;;;;;;;;;5061816;28;20028;-78
2021/07/17 05:01:59;;;;;;;33.40;10.80;;;;;;;;;;5097052;28;20026;-77
2021/07/17 05:04:24;;;;;;;31.13;10.10;;;;;;;;;;5062064;28;20534;-79
2021/07/17 05:06:51;;;;;;;30.08;9.55;;;;;;;;;;5096579;28;20032;-78
2021/07/17 05:09:17;;;;;;;36.10;11.82;;;;;;;;;;5061896;28;20063;-78
2021/07/17 05:11:50;;;;;;;33.17;9.90;;;;;;;;;;5096514;28;20043;-78
2021/07/17 05:14:17;;;;;;;34.60;10.80;;;;;;;;;;5068107;28;20091;-78
2021/07/17 05:16:42;;;;;;;29.88;10.85;;;;;;;;;;5119595;28;20364;-77
2021/07/17 05:19:08;;;;;;;40.70;12.00;;;;;;;;;;5085990;28;20035;-78
2021/07/17 05:21:36;;;;;;;39.63;12.50;;;;;;;;;;5085572;28;20068;-78
2021/07/17 05:24:03;;;;;;;35.58;11.57;;;;;;;;;;5118871;28;20099;-77
2021/07/17 05:26:28;;;;;;;31.15;10.38;;;;;;;;;;5084753;28;20059;-78
2021/07/17 05:28:54;;;;;;;30.52;10.25;;;;;;;;;;5102480;28;20032;-78
2021/07/17 05:31:22;;;;;;;34.72;10.60;;;;;;;;;;5102907;28;20030;-78
2021/07/17 05:33:50;;;;;;;33.20;9.98;;;;;;;;;;5084482;28;20023;-78
2021/07/17 05:36:15;;;;;;;32.60;10.73;;;;;;;;;;5085496;28;20039;-78
2021/07/17 05:38:40;;;;;;;27.23;9.55;;;;;;;;;;5102489;28;20039;-78
2021/07/17 05:41:06;;;;;;;34.30;10.60;;;;;;;;;;5102064;28;20027;-77
2021/07/17 05:43:31;;;;;;;29.50;10.98;;;;;;;;;;5101151;28;20031;-78
2021/07/17 05:45:57;;;;;;;32.00;11.25;;;;;;;;;;5081951;28;20043;-78
2021/07/17 05:48:25;;;;;;;39.88;10.70;;;;;;;;;;5082298;28;20062;-78
2021/07/17 05:50:51;;;;;;;34.67;11.25;;;;;;;;;;5081994;28;20088;-78
2021/07/17 05:53:18;;;;;;;31.40;10.45;;;;;;;;;;5083187;28;20096;-78
2021/07/17 05:55:45;;;;;;;27.63;9.20;;;;;;;;;;5098050;28;20044;-77
2021/07/17 05:58:10;;;;;;;37.38;11.20;;;;;;;;;;5081088;28;20048;-78
2021/07/17 06:00:35;;;;;;;31.80;9.70;;;;;;;;;;5081842;28;20039;-77
2021/07/17 06:03:01;;;;;;;29.60;9.93;;;;;;;;;;5085877;28;20024;-80
2021/07/17 06:05:26;;;;;;;30.42;10.88;;;;;;;;;;5086729;28;20521;-79
2021/07/17 06:07:53;;;;;;;30.58;9.68;;;;;;;;;;5087114;28;20452;-78
2021/07/17 06:10:20;;;;;;;30.60;10.52;;;;;;;;;;5087350;28;20036;-80
2021/07/17 06:12:45;;;;;;;27.33;10.07;;;;;;;;;;5088837;28;20563;-80
2021/07/17 06:15:11;;;;;;;23.35;10.25;;;;;;;;;;5112203;28;20098;-80
2021/07/17 06:17:37;;;;;;;27.75;9.45;;;;;;;;;;5113722;28;20027;-80
2021/07/17 06:20:03;;;;;;;25.20;8.55;;;;;;;;;;5112798;28;20122;-81
2021/07/17 06:22:31;;;;;;;33.33;9.50;;;;;;;;;;5114911;28;20038;-81
2021/07/17 06:24:58;;;;;;;24.23;9.60;;;;;;;;;;5113727;28;20031;-81
2021/07/17 06:27:24;;;;;;;26.52;9.80;;;;;;;;;;5131589;28;20054;-80
2021/07/17 06:29:51;;;;;;;28.85;8.80;;;;;;;;;;5130816;28;20042;-81
2021/07/17 06:32:18;;;;;;;25.10;9.18;;;;;;;;;;5113072;28;20447;-80
2021/07/17 06:34:45;;;;;;;24.92;9.10;;;;;;;;;;5115482;28;20031;-81
2021/07/17 06:37:12;;;;;;;25.83;8.48;;;;;;;;;;5131641;28;20053;-80
2021/07/17 06:39:37;;;;;;;23.95;8.32;;;;;;;;;;5114532;28;20027;-82
2021/07/17 06:42:03;;;;;;;22.73;8.68;;;;;;;;;;5114309;28;20039;-80
2021/07/17 06:44:28;;;;;;;33.92;9.50;;;;;;;;;;5106635;28;20003;-81
2021/07/17 06:46:56;;;;;;;26.60;9.80;;;;;;;;;;5108784;28;20042;-80
2021/07/17 06:49:22;;;;;;;25.02;9.52;;;;;;;;;;5111111;28;20039;-82
2021/07/17 06:51:49;;;;;;;33.22;11.38;;;;;;;;;;5110235;28;20059;-82
2021/07/17 06:54:15;;;;;;;31.05;10.40;;;;;;;;;;5094308;28;20051;-81
2021/07/17 06:56:40;;;;;;;25.83;9.52;;;;;;;;;;5097140;28;20023;-79
2021/07/17 06:59:06;;;;;;;31.10;9.35;;;;;;;;;;5093246;28;20043;-79
2021/07/17 07:01:33;;;;;;;38.28;11.13;;;;;;;;;;5094055;28;20035;-79
2021/07/17 07:03:58;;;;;;;26.75;9.80;;;;;;;;;;5108188;28;20091;-80
2021/07/17 07:06:24;;;;;;;31.08;9.93;;;;;;;;;;5110760;28;20539;-79
2021/07/17 07:08:49;;;;;;;32.25;10.85;;;;;;;;;;5093052;28;20039;-79
2021/07/17 07:11:15;;;;;;;32.63;10.80;;;;;;;;;;5093137;28;20066;-79
2021/07/17 07:13:40;;;;;;;25.65;10.95;;;;;;;;;;5111893;28;20105;-82
2021/07/17 07:16:05;;;;;;;32.35;10.45;;;;;;;;;;5073136;28;20079;-82
2021/07/17 07:18:31;;;;;;;34.50;11.40;;;;;;;;;;5089035;28;20082;-81
2021/07/17 07:20:56;;;;;;;37.45;12.35;;;;;;;;;;5091160;28;20039;-81
2021/07/17 07:23:22;;;;;;;31.17;10.80;;;;;;;;;;5091698;28;20040;-81
2021/07/17 07:25:47;;;;;;;28.95;9.70;;;;;;;;;;5090625;28;20437;-81
2021/07/17 07:28:13;;;;;;;30.75;10.13;;;;;;;;;;5081597;28;20058;-81
2021/07/17 07:30:38;;;;;;;26.25;11.07;;;;;;;;;;5081735;28;20040;-79
2021/07/17 07:33:04;;;;;;;31.50;9.95;;;;;;;;;;5080524;28;20055;-77
2021/07/17 07:35:29;;;;;;;31.63;10.05;;;;;;;;;;5079251;28;20056;-80
2021/07/17 07:37:55;;;;;;;35.28;10.75;;;;;;;;;;5099280;28;20032;-79
2021/07/17 07:40:23;;;;;;;30.05;10.80;;;;;;;;;;5081308;28;20032;-80
2021/07/17 07:42:50;;;;;;;28.40;9.43;;;;;;;;;;5098069;28;20040;-80
2021/07/17 07:45:16;;;;;;;23.85;8.60;;;;;;;;;;5092985;28;20043;-79
2021/07/17 07:47:42;;;;;;;25.20;9.38;;;;;;;;;;5084982;28;20036;-79
2021/07/17 07:50:08;;;;;;;26.17;9.75;;;;;;;;;;5118366;28;20042;-80
2021/07/17 07:52:34;;;;;;;29.83;9.60;;;;;;;;;;5101580;28;20465;-79
2021/07/17 07:55:00;;;;;;;30.20;10.65;;;;;;;;;;5101664;28;20108;-79
2021/07/17 07:57:25;;;;;;;28.92;9.90;;;;;;;;;;5101334;28;20474;-79
2021/07/17 07:59:51;;;;;;;26.65;9.00;;;;;;;;;;5086507;28;20088;-81
2021/07/17 08:02:18;;;;;;;32.20;10.57;;;;;;;;;;5103053;28;20544;-81
2021/07/17 08:04:44;;;;;;;36.10;11.55;;;;;;;;;;5103174;28;20050;-81
2021/07/17 08:07:10;;;;;;;27.77;9.52;;;;;;;;;;5102960;28;20036;-80
2021/07/17 08:09:35;;;;;;;26.10;9.52;;;;;;;;;;5084811;28;20038;-77
2021/07/17 08:12:01;;;;;;;25.80;10.30;;;;;;;;;;5118454;28;20118;-82
2021/07/17 08:14:27;;;;;;;27.80;10.32;;;;;;;;;;5077017;28;20085;-77
2021/07/17 08:16:53;;;;;;;30.80;9.65;;;;;;;;;;5077872;28;20228;-77
2021/07/17 08:19:19;;;;;;;28.92;9.98;;;;;;;;;;5063150;28;20561;-78
2021/07/17 08:21:45;;;;;;;30.17;9.90;;;;;;;;;;5080722;28;20035;-78
2021/07/17 08:24:10;;;;;;;24.98;9.68;;;;;;;;;;5064316;28;20040;-78
2021/07/17 08:26:36;;;;;;;24.08;8.95;;;;;;;;;;5064540;28;20039;-80
2021/07/17 08:29:03;;;;;;;27.90;9.70;;;;;;;;;;5081953;28;20513;-80
2021/07/17 08:31:28;;;;;;;26.75;9.38;;;;;;;;;;5100437;28;20036;-81
2021/07/17 08:33:53;;;;;;;28.70;9.02;;;;;;;;;;5082600;28;20020;-82
2021/07/17 08:36:19;;;;;;;31.80;10.15;;;;;;;;;;5082242;28;20097;-79
2021/07/17 08:38:45;;;;;;;33.53;12.75;;;;;;;;;;5081520;28;20027;-79
2021/07/17 08:41:11;;;;;;;23.67;10.90;;;;;;;;;;5098390;28;20106;-79
2021/07/17 08:43:38;;;;;;;25.83;10.02;;;;;;;;;;5096567;28;20402;-79
2021/07/17 08:46:04;;;;;;;24.35;9.90;;;;;;;;;;5078455;28;20558;-80
2021/07/17 08:48:30;;;;;;;32.58;10.82;;;;;;;;;;5080238;28;20036;-80
2021/07/17 08:50:58;;;;;;;24.42;9.35;;;;;;;;;;5062769;28;20043;-80
2021/07/17 08:53:24;;;;;;;21.88;9.57;;;;;;;;;;5080316;28;20470;-79
2021/07/17 08:55:49;;;;;;;29.38;11.00;;;;;;;;;;5081228;28;20048;-79
2021/07/17 08:58:15;;;;;;;26.88;10.10;;;;;;;;;;5101033;28;20032;-81
2021/07/17 09:00:43;;;;;;;32.25;10.60;;;;;;;;;;5082811;28;20028;-79
2021/07/17 09:03:16;;;;;;;25.23;9.35;;;;;;;;;;5099376;28;20027;-79
2021/07/17 09:05:44;;;;;;;33.03;11.65;;;;;;;;;;5094495;28;20023;-84
2021/07/17 09:08:12;;;;;;;28.90;9.80;;;;;;;;;;5073261;28;20091;-79
2021/07/17 09:10:40;;;;;;;23.23;10.00;;;;;;;;;;5095181;28;20040;-80
2021/07/17 09:13:17;;;;;;;28.63;9.68;;;;;;;;;;5079451;28;20032;-82
2021/07/17 09:15:55;;;;;;;30.85;10.07;;;;;;;;;;5079814;28;20050;-79
2021/07/17 09:18:21;;;;;;;33.72;10.98;;;;;;;;;;5082919;28;20039;-79
2021/07/17 09:20:56;;;;;;;27.65;10.25;;;;;;;;;;5083556;28;20036;-80
2021/07/17 09:23:27;;;;;;;;;;;;;;;;;;5081568;28;20071;-85
2021/07/17 09:25:54;;;;;;;31.27;10.45;;;;;;;;;;5091521;28;19919;-80
2021/07/17 09:28:25;;;;;;;27.13;8.85;;;;;;;;;;5081059;28;20039;-84
2021/07/17 09:30:55;;;;;;;31.10;9.80;;;;;;;;;;5073917;28;20031;-81
2021/07/17 09:33:20;;;;;;;24.17;9.77;;;;;;;;;;5100144;28;20031;-83
2021/07/17 09:35:49;;;;;;;25.17;9.32;;;;;;;;;;5105379;28;20038;-82
2021/07/17 09:38:17;;;;;;;29.38;9.35;;;;;;;;;;5104566;28;20036;-85
2021/07/17 09:40:55;;;;;;;30.02;9.57;;;;;;;;;;5085291;28;20031;-83
2021/07/17 09:43:32;;;;;;;28.65;8.82;;;;;;;;;;5089344;28;20028;-86
2021/07/17 09:45:58;;;;;;;23.92;8.68;;;;;;;;;;5120335;27;20034;-79
2021/07/17 09:48:29;;;;;;;27.52;9.18;;;;;;;;;;5100650;28;20035;-81
2021/07/17 09:50:57;;;;;;;30.05;9.55;;;;;;;;;;5090175;28;20542;-80
2021/07/17 09:53:46;;;;;;;23.65;8.88;;;;;;;;;;5094704;28;20054;-79
2021/07/17 09:56:14;;;;;;;32.35;10.10;;;;;;;;;;5092308;28;20035;-79
2021/07/17 09:58:41;;;;;;;20.92;8.40;;;;;;;;;;5088086;28;20035;-83
2021/07/17 10:01:23;;;;;;;23.95;9.32;;;;;;;;;;5089420;28;20063;-81
2021/07/17 10:03:51;;;;;;;23.92;8.20;;;;;;;;;;5090880;28;20040;-82
2021/07/17 10:07:00;;;;;;;27.83;9.02;;;;;;;;;;5075377;28;20050;-83
2021/07/17 10:09:36;;;;;;;26.88;8.68;;;;;;;;;;5010182;28;20037;-80
2021/07/17 10:12:08;;;;;;;22.08;8.73;;;;;;;;;;5067010;28;20487;-84
2021/07/17 10:14:41;;;;;;;30.35;8.80;;;;;;;;;;5104308;27;20027;-81
2021/07/17 10:17:12;;;;;;;23.85;9.30;;;;;;;;;;5080828;28;20046;-83
2021/07/17 10:19:38;;;;;;;25.05;8.68;;;;;;;;;;5095453;28;20095;-85
2021/07/17 10:22:05;;;;;;;22.98;7.88;;;;;;;;;;5097230;28;20046;-79
2021/07/17 10:24:33;;;;;;;21.65;8.20;;;;;;;;;;5061720;28;20037;-80
2021/07/17 10:26:59;;;;;;;23.20;7.72;;;;;;;;;;5074993;28;20452;-79
2021/07/17 10:29:26;;;;;;;23.58;8.02;;;;;;;;;;5058057;28;20480;-79
2021/07/17 10:31:54;;;;;;;17.38;6.65;;;;;;;;;;5061953;28;20119;-79
2021/07/17 10:34:20;;;;;;;25.52;8.15;;;;;;;;;;5078711;28;20036;-79
2021/07/17 10:36:58;;;;;;;20.77;7.45;;;;;;;;;;5079575;28;20398;-79
2021/07/17 10:39:33;;;;;;;20.92;7.63;;;;;;;;;;5061696;28;20109;-79
2021/07/17 10:41:59;;;;;;;15.70;6.80;;;;;;;;;;5079705;28;20373;-79
2021/07/17 10:45:01;;;;;;;23.40;8.18;;;;;;;;;;5062803;28;20041;-79
2021/07/17 10:47:40;;;;;;;24.13;7.38;;;;;;;;;;4984732;28;20049;-79
2021/07/17 10:50:08;;;;;;;17.50;5.93;;;;;;;;;;5034959;28;20040;-79
2021/07/17 10:52:39;;;;;;;17.27;7.50;;;;;;;;;;5059614;28;20040;-79
2021/07/17 10:55:36;;;;;;;15.48;6.53;;;;;;;;;;5058535;28;20132;-80
2021/07/17 10:58:11;;;;;;;21.23;7.05;;;;;;;;;;5059760;28;20045;-80
2021/07/17 11:00:42;;;;;;;20.85;6.55;;;;;;;;;;5058467;28;20403;-79
2021/07/17 11:03:21;;;;;;;19.67;6.70;;;;;;;;;;5058062;28;20056;-80
2021/07/17 11:05:49;;;;;;;19.05;6.75;;;;;;;;;;5057628;28;20029;-80
2021/07/17 11:08:36;;;;;;;13.15;5.97;;;;;;;;;;5058058;28;20041;-80
2021/07/17 11:11:28;;;;;;;18.65;5.85;;;;;;;;;;5058418;28;20036;-81
2021/07/17 11:14:05;;;;;;;13.20;5.53;;;;;;;;;;5069955;28;20028;-80
2021/07/17 11:17:03;;;;;;;19.80;7.13;;;;;;;;;;5061794;28;20074;-80
2021/07/17 11:19:28;;;;;;;16.08;5.80;;;;;;;;;;5074352;28;20062;-80
2021/07/17 11:22:10;;;;;;;14.98;5.32;;;;;;;;;;5080558;28;20029;-83
2021/07/17 11:24:35;;;;;;;21.67;5.95;;;;;;;;;;5071738;28;20048;-82
2021/07/17 11:27:17;;;;;;;11.73;5.18;;;;;;;;;;5072916;28;20041;-81
2021/07/17 11:29:45;;;;;;;17.58;5.78;;;;;;;;;;5073151;28;20047;-80
2021/07/17 11:32:12;;;;;;;17.73;5.05;;;;;;;;;;5068743;28;20043;-79
2021/07/17 11:34:50;;;;;;;12.88;4.90;;;;;;;;;;5080404;28;20430;-78
2021/07/17 11:37:20;;;;;;;13.65;5.28;;;;;;;;;;5082096;28;20045;-79
2021/07/17 11:39:49;;;;;;;13.75;4.70;;;;;;;;;;5068887;28;20033;-79
2021/07/17 11:42:16;;;;;;;14.25;4.82;;;;;;;;;;5070096;28;20036;-80
2021/07/17 11:44:48;;;;;;;13.98;4.85;;;;;;;;;;5086979;28;20444;-79
2021/07/17 11:47:26;;;;;;;11.43;4.57;;;;;;;;;;5083035;28;20048;-79
2021/07/17 11:49:53;;;;;;;12.77;5.25;;;;;;;;;;5063435;28;20033;-78
2021/07/17 11:52:26;;;;;;;14.20;7.03;;;;;;;;;;5058367;28;20449;-78
2021/07/17 11:55:01;;;;;;;12.60;4.45;;;;;;;;;;5061569;28;20028;-79
2021/07/17 11:57:28;;;;;;;;;;;;;;;;;;5068597;28;20045;-79
2021/07/17 11:59:54;;;;;;;11.15;3.95;;;;;;;;;;5066835;28;19923;-82
2021/07/17 12:02:21;;;;;;;8.85;3.63;;;;;;;;;;5070288;28;20040;-81
2021/07/17 12:04:49;;;;;;;10.40;4.00;;;;;;;;;;5086358;28;20024;-82
2021/07/17 12:07:23;;;;;;;13.48;4.13;;;;;;;;;;5085868;28;20036;-82
2021/07/17 12:09:51;;;;;;;9.23;3.75;;;;;;;;;;5069132;28;20032;-81
2021/07/17 12:12:21;;;;;;;10.68;3.40;;;;;;;;;;5063637;28;20075;-83
2021/07/17 12:14:54;;;;;;;12.30;4.30;;;;;;;;;;5068166;28;20099;-81
2021/07/17 12:17:21;;;;;;;11.65;4.30;;;;;;;;;;5072342;28;20040;-82
2021/07/17 12:20:02;;;;;;;10.35;3.45;;;;;;;;;;5069263;28;20064;-82
2021/07/17 12:22:28;;;;;;;18.40;4.30;;;;;;;;;;5068774;28;20033;-82
2021/07/17 12:25:21;;;;;;;11.15;3.22;;;;;;;;;;5066375;28;20087;-80
2021/07/17 12:27:52;;;;;;;11.82;4.10;;;;;;;;;;5057306;28;20053;-80
2021/07/17 12:30:18;;;;;;;13.90;3.17;;;;;;;;;;5061900;28;20495;-80
2021/07/17 12:32:43;;;;;;;7.22;3.20;;;;;;;;;;5058786;28;20045;-78
2021/07/17 12:35:09;;;;;;;9.68;2.88;;;;;;;;;;5055157;28;20029;-79
2021/07/17 12:37:34;;;;;;;7.60;2.85;;;;;;;;;;5056485;28;20033;-78
2021/07/17 12:40:04;;;;;;;13.18;2.85;;;;;;;;;;5055590;28;20102;-78
2021/07/17 12:42:31;;;;;;;5.40;2.72;;;;;;;;;;5056151;28;20048;-78
2021/07/17 12:44:59;;;;;;;10.13;3.08;;;;;;;;;;5055620;28;20036;-78
2021/07/17 12:47:25;;;;;;;7.28;2.72;;;;;;;;;;5079574;28;20032;-78
2021/07/17 12:50:00;;;;;;;7.05;2.83;;;;;;;;;;5061205;28;20067;-78
2021/07/17 12:52:26;;;;;;;8.65;2.90;;;;;;;;;;5063546;28;20036;-80
2021/07/17 12:55:04;;;;;;;13.90;2.85;;;;;;;;;;5059396;28;20539;-78
2021/07/17 12:57:30;;;;;;;8.63;3.30;;;;;;;;;;5060017;28;20107;-78
2021/07/17 12:59:57;;;;;;;8.73;3.40;;;;;;;;;;5077262;28;20040;-78
2021/07/17 13:02:23;;;;;;;70.28;17.27;;;;;;;;;;5059957;28;20032;-79
2021/07/17 13:04:50;;;;;;;8.80;2.80;;;;;;;;;;5060138;28;20441;-78
2021/07/17 13:07:26;;;;;;;11.25;3.35;;;;;;;;;;5078862;28;20079;-78
2021/07/17 13:09:52;;;;;;;8.27;2.67;;;;;;;;;;5076010;28;20044;-78
2021/07/17 13:12:30;;;;;;;23.75;6.38;;;;;;;;;;5076535;28;20071;-78
2021/07/17 13:14:56;;;;;;;9.13;2.67;;;;;;;;;;5076225;28;20471;-78
2021/07/17 13:17:23;;;;;;;6.15;2.55;;;;;;;;;;5058793;28;20036;-79
2021/07/17 13:20:01;;;;;;;9.43;3.28;;;;;;;;;;5061294;28;20028;-79
2021/07/17 13:22:45;;;;;;;120.15;22.02;;;;;;;;;;5060742;28;20040;-79
2021/07/17 13:25:21;;;;;;;100.03;17.05;;;;;;;;;;5059867;28;20065;-78
2021/07/17 13:27:47;;;;;;;13.82;3.50;;;;;;;;;;5061395;28;20162;-79
2021/07/17 13:30:13;;;;;;;11.75;3.08;;;;;;;;;;5076457;28;20072;-78
2021/07/17 13:32:42;;;;;;;15.82;2.90;;;;;;;;;;5075844;28;20169;-79
2021/07/17 13:35:19;;;;;;;7.53;3.00;;;;;;;;;;5060223;28;20043;-79
2021/07/17 13:37:46;;;;;;;7.40;2.67;;;;;;;;;;5062274;28;20032;-81
2021/07/17 13:40:24;;;;;;;9.25;3.60;;;;;;;;;;5064145;28;20040;-81
2021/07/17 13:42:49;;;;;;;8.77;3.38;;;;;;;;;;5061422;28;20395;-80
2021/07/17 13:45:15;;;;;;;12.07;3.10;;;;;;;;;;5078335;28;20036;-80
2021/07/17 13:47:42;;;;;;;7.10;2.42;;;;;;;;;;5078966;28;20110;-81
2021/07/17 13:50:21;;;;;;;7.68;2.80;;;;;;;;;;5081032;28;20059;-81
2021/07/17 13:52:47;;;;;;;10.65;2.40;;;;;;;;;;5062141;28;20127;-80
2021/07/17 13:55:23;;;;;;;7.90;2.50;;;;;;;;;;5062327;28;20525;-80
2021/07/17 13:57:49;;;;;;;8.05;2.00;;;;;;;;;;5061080;28;20483;-80
2021/07/17 14:00:17;;;;;;;9.35;2.90;;;;;;;;;;5060048;28;20043;-81
2021/07/17 14:02:44;;;;;;;7.55;2.00;;;;;;;;;;5059546;28;20043;-81
2021/07/17 14:05:12;;;;;;;5.53;1.95;;;;;;;;;;5056870;28;20047;-81
2021/07/17 14:07:38;;;;;;;9.18;2.60;;;;;;;;;;5076042;28;20086;-82
2021/07/17 14:10:07;;;;;;;14.95;1.90;;;;;;;;;;5059492;28;20036;-82
2021/07/17 14:12:32;;;;;;;9.57;2.30;;;;;;;;;;5059667;28;20499;-82
2021/07/17 14:14:58;;;;;;;8.13;1.67;;;;;;;;;;5057891;28;20093;-82
2021/07/17 14:17:24;;;;;;;8.73;2.00;;;;;;;;;;5058343;28;20039;-81
2021/07/17 14:19:52;;;;;;;12.32;1.90;;;;;;;;;;5075716;28;20398;-82
2021/07/17 14:22:18;;;;;;;6.88;1.98;;;;;;;;;;5075312;28;20051;-80
2021/07/17 14:24:43;;;;;;;3.97;1.52;;;;;;;;;;5075085;28;20044;-82
2021/07/17 14:27:11;;;;;;;5.38;1.95;;;;;;;;;;5076042;28;20048;-83
2021/07/17 14:29:36;;;;;;;10.07;1.80;;;;;;;;;;5059697;28;20063;-81
2021/07/17 14:32:04;;;;;;;13.30;2.60;;;;;;;;;;5076189;28;20074;-82